createdAt,value
2018-05-25T00:00:31.196Z,17.70
2018-05-25T00:01:31.349Z,17.10
2018-05-25T00:02:31.503Z,16.50
2018-05-25T00:03:31.660Z,17.30
2018-05-25T00:04:31.816Z,16.30
2018-05-25T00:05:31.972Z,16.40
2018-05-25T00:06:32.126Z,16.50
2018-05-25T00:07:32.284Z,15.60
2018-05-25T00:08:32.439Z,15.20
2018-05-25T00:09:32.589Z,15.80
2018-05-25T00:10:32.744Z,14.90
2018-05-25T00:11:32.900Z,15.60
2018-05-25T00:12:33.059Z,15.00
2018-05-25T00:13:33.218Z,14.70
2018-05-25T00:14:33.365Z,14.20
2018-05-25T00:15:33.518Z,13.70
2018-05-25T00:16:33.679Z,14.70
2018-05-25T00:17:33.829Z,14.60
2018-05-25T00:18:33.984Z,14.70
2018-05-25T00:19:34.140Z,14.60
2018-05-25T00:20:34.296Z,15.70
2018-05-25T00:21:34.450Z,15.40
2018-05-25T00:22:34.602Z,15.80
2018-05-25T00:23:34.759Z,14.70
2018-05-25T00:24:34.912Z,15.60
2018-05-25T00:25:35.069Z,16.70
2018-05-25T00:26:35.223Z,16.90
2018-05-25T00:27:35.381Z,16.30
2018-05-25T00:28:35.533Z,15.20
2018-05-25T00:29:35.690Z,16.10
2018-05-25T00:30:35.842Z,15.70
2018-05-25T00:31:35.998Z,15.30
2018-05-25T00:32:36.160Z,14.00
2018-05-25T00:33:36.308Z,14.30
2018-05-25T00:34:36.465Z,14.10
2018-05-25T00:35:36.620Z,13.60
2018-05-25T00:36:36.775Z,13.70
2018-05-25T00:37:36.929Z,14.00
2018-05-25T00:38:37.084Z,14.10
2018-05-25T00:39:37.244Z,14.20
2018-05-25T00:40:37.401Z,13.40
2018-05-25T00:41:37.560Z,13.10
2018-05-25T00:42:37.713Z,13.10
2018-05-25T00:43:37.867Z,12.70
2018-05-25T00:44:38.021Z,12.30
2018-05-25T00:45:38.175Z,12.90
2018-05-25T00:46:38.328Z,13.50
2018-05-25T00:47:38.484Z,13.30
2018-05-25T00:48:38.630Z,12.70
2018-05-25T00:49:38.786Z,13.00
2018-05-25T00:50:38.936Z,13.40
2018-05-25T00:51:39.103Z,13.50
2018-05-25T00:52:39.248Z,13.20
2018-05-25T00:53:39.403Z,14.30
2018-05-25T00:54:39.559Z,14.00
2018-05-25T00:55:39.714Z,14.60
2018-05-25T00:56:39.869Z,14.90
2018-05-25T00:57:40.025Z,14.10
2018-05-25T00:58:40.182Z,14.60
2018-05-25T00:59:40.337Z,14.10
2018-05-25T01:00:40.493Z,14.00
2018-05-25T01:01:40.649Z,15.00
2018-05-25T01:02:40.804Z,15.20
2018-05-25T01:03:40.960Z,14.60
2018-05-25T01:04:41.114Z,14.70
2018-05-25T01:05:41.273Z,14.10
2018-05-25T01:06:41.433Z,14.50
2018-05-25T01:07:41.582Z,15.60
2018-05-25T01:08:41.741Z,15.60
2018-05-25T01:09:41.891Z,15.20
2018-05-25T01:10:42.045Z,15.40
2018-05-25T01:11:42.201Z,15.30
2018-05-25T01:12:42.355Z,15.10
2018-05-25T01:13:42.510Z,15.50
2018-05-25T01:14:42.664Z,15.50
2018-05-25T01:15:42.822Z,15.90
2018-05-25T01:16:42.971Z,16.90
2018-05-25T01:17:43.128Z,16.30
2018-05-25T01:18:43.285Z,16.10
2018-05-25T01:19:43.436Z,16.20
2018-05-25T01:20:43.591Z,16.40
2018-05-25T01:21:43.745Z,16.90
2018-05-25T01:22:43.903Z,16.80
2018-05-25T01:23:44.057Z,17.30
2018-05-25T01:24:44.209Z,16.80
2018-05-25T01:25:44.366Z,16.70
2018-05-25T01:26:44.523Z,16.70
2018-05-25T01:27:44.677Z,18.30
2018-05-25T01:28:44.829Z,17.10
2018-05-25T01:29:44.984Z,17.00
2018-05-25T01:30:45.144Z,17.70
2018-05-25T01:31:45.294Z,17.40
2018-05-25T01:32:45.447Z,16.80
2018-05-25T01:33:45.602Z,16.90
2018-05-25T01:34:45.759Z,16.70
2018-05-25T01:35:45.912Z,17.50
2018-05-25T01:36:46.065Z,17.50
2018-05-25T01:37:46.220Z,17.90
2018-05-25T01:38:46.375Z,18.00
2018-05-25T01:39:46.530Z,18.20
2018-05-25T01:40:46.687Z,18.00
2018-05-25T01:41:46.842Z,18.50
2018-05-25T01:42:46.995Z,19.00
2018-05-25T01:43:47.152Z,17.70
2018-05-25T01:44:47.305Z,18.90
2018-05-25T01:45:47.459Z,18.10
2018-05-25T01:46:47.613Z,18.40
2018-05-25T01:47:47.768Z,20.10
2018-05-25T01:48:47.925Z,19.10
2018-05-25T01:49:48.078Z,19.70
2018-05-25T01:50:48.231Z,19.70
2018-05-25T01:51:48.389Z,19.30
2018-05-25T01:52:48.544Z,19.50
2018-05-25T01:53:48.698Z,19.50
2018-05-25T01:54:48.853Z,19.80
2018-05-25T01:55:49.008Z,19.50
2018-05-25T01:56:49.163Z,20.90
2018-05-25T01:57:49.319Z,20.40
2018-05-25T01:58:49.471Z,19.80
2018-05-25T01:59:49.625Z,19.60
2018-05-25T02:00:49.784Z,19.80
2018-05-25T02:01:49.933Z,19.90
2018-05-25T02:02:50.090Z,18.80
2018-05-25T02:03:50.243Z,19.80
2018-05-25T02:04:50.401Z,19.20
2018-05-25T02:05:50.556Z,19.40
2018-05-25T02:06:50.712Z,19.70
2018-05-25T02:07:50.866Z,19.50
2018-05-25T02:08:51.023Z,19.40
2018-05-25T02:09:51.174Z,19.60
2018-05-25T02:10:51.330Z,19.40
2018-05-25T02:11:51.483Z,21.20
2018-05-25T02:12:51.639Z,19.80
2018-05-25T02:13:51.794Z,20.20
2018-05-25T02:14:51.947Z,20.40
2018-05-25T02:15:52.112Z,20.00
2018-05-25T02:16:52.258Z,19.50
2018-05-25T02:17:52.414Z,20.30
2018-05-25T02:18:52.569Z,20.50
2018-05-25T02:19:52.724Z,19.60
2018-05-25T02:20:52.879Z,20.50
2018-05-25T02:21:53.049Z,20.60
2018-05-25T02:22:53.190Z,21.30
2018-05-25T02:23:53.344Z,22.20
2018-05-25T02:24:53.499Z,20.40
2018-05-25T02:25:53.654Z,21.20
2018-05-25T02:26:53.812Z,21.90
2018-05-25T02:27:53.965Z,21.90
2018-05-25T02:28:54.121Z,20.70
2018-05-25T02:29:54.281Z,20.80
2018-05-25T02:30:54.434Z,20.50
2018-05-25T02:31:54.590Z,21.80
2018-05-25T02:32:54.742Z,20.60
2018-05-25T02:33:54.896Z,20.50
2018-05-25T02:34:55.074Z,21.20
2018-05-25T02:35:55.209Z,20.40
2018-05-25T02:36:55.362Z,20.90
2018-05-25T02:37:55.517Z,20.90
2018-05-25T02:38:55.674Z,20.50
2018-05-25T02:39:55.833Z,20.40
2018-05-25T02:40:55.982Z,20.20
2018-05-25T02:41:56.139Z,19.80
2018-05-25T02:42:56.291Z,21.00
2018-05-25T02:43:56.451Z,20.50
2018-05-25T02:44:56.601Z,21.00
2018-05-25T02:45:56.763Z,21.20
2018-05-25T02:46:56.912Z,20.90
2018-05-25T02:47:57.069Z,21.40
2018-05-25T02:48:57.245Z,20.90
2018-05-25T02:49:57.400Z,20.50
2018-05-25T02:50:57.558Z,21.20
2018-05-25T02:51:57.710Z,20.30
2018-05-25T02:52:57.865Z,20.50
2018-05-25T02:53:58.021Z,21.20
2018-05-25T02:54:58.174Z,21.40
2018-05-25T02:55:58.332Z,20.30
2018-05-25T02:56:58.484Z,22.00
2018-05-25T02:57:58.641Z,21.70
2018-05-25T02:58:58.800Z,22.50
2018-05-25T02:59:58.954Z,22.10
2018-05-25T03:00:59.110Z,21.70
2018-05-25T03:01:59.264Z,22.30
2018-05-25T03:02:59.420Z,22.40
2018-05-25T03:03:59.574Z,22.00
2018-05-25T03:04:59.733Z,22.40
2018-05-25T03:05:59.891Z,22.00
2018-05-25T03:07:00.039Z,22.10
2018-05-25T03:08:00.196Z,23.00
2018-05-25T03:09:00.349Z,22.10
2018-05-25T03:10:00.508Z,22.50
2018-05-25T03:11:00.661Z,23.30
2018-05-25T03:12:00.819Z,22.60
2018-05-25T03:13:00.972Z,22.60
2018-05-25T03:14:01.133Z,22.30
2018-05-25T03:15:01.282Z,22.80
2018-05-25T03:16:01.438Z,22.50
2018-05-25T03:17:01.639Z,22.90
2018-05-25T03:18:01.749Z,22.50
2018-05-25T03:19:01.905Z,21.90
2018-05-25T03:20:02.057Z,22.70
2018-05-25T03:21:02.215Z,22.50
2018-05-25T03:22:02.371Z,23.40
2018-05-25T03:23:02.525Z,22.20
2018-05-25T03:24:02.682Z,23.00
2018-05-25T03:25:02.835Z,24.00
2018-05-25T03:26:02.991Z,23.50
2018-05-25T03:27:03.159Z,24.00
2018-05-25T03:28:03.323Z,23.10
2018-05-25T03:29:03.475Z,24.50
2018-05-25T03:30:03.634Z,24.00
2018-05-25T03:31:03.787Z,24.50
2018-05-25T03:32:03.941Z,23.80
2018-05-25T03:33:04.094Z,23.90
2018-05-25T03:34:04.252Z,24.10
2018-05-25T03:35:04.410Z,23.40
2018-05-25T03:36:04.564Z,23.80
2018-05-25T03:37:04.721Z,23.90
2018-05-25T03:38:04.873Z,25.00
2018-05-25T03:39:05.029Z,24.00
2018-05-25T03:40:05.184Z,24.00
2018-05-25T03:41:05.340Z,25.20
2018-05-25T03:42:05.496Z,24.10
2018-05-25T03:43:05.704Z,24.30
2018-05-25T03:44:05.805Z,24.70
2018-05-25T03:45:05.961Z,23.90
2018-05-25T03:46:06.118Z,24.00
2018-05-25T03:47:06.270Z,23.40
2018-05-25T03:48:06.426Z,23.60
2018-05-25T03:49:06.581Z,23.70
2018-05-25T03:50:06.738Z,24.10
2018-05-25T03:51:06.892Z,24.30
2018-05-25T03:52:07.047Z,23.40
2018-05-25T03:53:07.207Z,24.00
2018-05-25T03:54:07.359Z,23.90
2018-05-25T03:55:07.517Z,23.30
2018-05-25T03:56:07.669Z,23.10
2018-05-25T03:57:07.823Z,24.50
2018-05-25T03:58:07.984Z,23.00
2018-05-25T03:59:08.133Z,23.80
2018-05-25T04:00:08.286Z,25.20
2018-05-25T04:01:08.442Z,23.40
2018-05-25T04:02:08.601Z,23.20
2018-05-25T04:03:08.756Z,23.40
2018-05-25T04:04:08.913Z,23.20
2018-05-25T04:05:09.078Z,23.50
2018-05-25T04:06:09.232Z,22.80
2018-05-25T04:07:09.387Z,22.30
2018-05-25T04:08:09.546Z,22.40
2018-05-25T04:09:09.701Z,22.40
2018-05-25T04:10:09.854Z,22.40
2018-05-25T04:11:10.010Z,22.40
2018-05-25T04:12:10.164Z,22.30
2018-05-25T04:13:10.319Z,22.10
2018-05-25T04:14:10.514Z,22.30
2018-05-25T04:15:10.630Z,22.10
2018-05-25T04:16:10.783Z,22.90
2018-05-25T04:17:10.939Z,22.00
2018-05-25T04:18:11.093Z,22.00
2018-05-25T04:19:11.249Z,21.10
2018-05-25T04:20:11.401Z,22.10
2018-05-25T04:21:11.557Z,21.50
2018-05-25T04:22:11.712Z,21.20
2018-05-25T04:23:11.866Z,22.10
2018-05-25T04:24:12.027Z,22.00
2018-05-25T04:25:12.183Z,22.00
2018-05-25T04:26:12.335Z,22.20
2018-05-25T04:27:12.491Z,23.00
2018-05-25T04:28:12.645Z,23.40
2018-05-25T04:29:12.811Z,21.20
2018-05-25T04:30:12.960Z,22.20
2018-05-25T04:31:13.117Z,23.20
2018-05-25T04:32:13.269Z,21.90
2018-05-25T04:33:13.425Z,21.80
2018-05-25T04:34:13.583Z,21.70
2018-05-25T04:35:13.737Z,22.20
2018-05-25T04:36:13.892Z,22.30
2018-05-25T04:37:14.048Z,22.10
2018-05-25T04:38:14.204Z,22.10
2018-05-25T04:39:14.358Z,22.10
2018-05-25T04:40:14.513Z,21.20
2018-05-25T04:41:14.667Z,20.80
2018-05-25T04:42:14.824Z,21.90
2018-05-25T04:43:15.031Z,21.70
2018-05-25T04:44:15.134Z,20.80
2018-05-25T04:45:15.288Z,20.90
2018-05-25T04:46:15.440Z,22.00
2018-05-25T04:47:15.601Z,21.00
2018-05-25T04:48:15.750Z,21.60
2018-05-25T04:49:15.906Z,21.00
2018-05-25T04:50:16.062Z,20.20
2018-05-25T04:51:16.216Z,20.80
2018-05-25T04:52:16.374Z,20.70
2018-05-25T04:53:16.529Z,21.50
2018-05-25T04:54:16.684Z,20.80
2018-05-25T04:55:16.838Z,21.00
2018-05-25T04:56:16.997Z,21.00
2018-05-25T04:57:17.184Z,20.90
2018-05-25T04:58:17.343Z,22.00
2018-05-25T04:59:17.497Z,22.20
2018-05-25T05:00:17.653Z,20.30
2018-05-25T05:01:17.807Z,20.30
2018-05-25T05:02:17.964Z,19.10
2018-05-25T05:03:18.117Z,19.50
2018-05-25T05:04:18.277Z,20.10
2018-05-25T05:05:18.431Z,19.60
2018-05-25T05:06:18.589Z,19.60
2018-05-25T05:07:18.743Z,19.70
2018-05-25T05:08:18.897Z,18.40
2018-05-25T05:09:19.054Z,18.60
2018-05-25T05:10:19.216Z,19.10
2018-05-25T05:11:19.368Z,19.10
2018-05-25T05:12:19.523Z,18.50
2018-05-25T05:13:19.681Z,19.30
2018-05-25T05:14:19.839Z,17.70
2018-05-25T05:15:19.991Z,17.90
2018-05-25T05:16:20.148Z,18.20
2018-05-25T05:17:20.305Z,17.90
2018-05-25T05:18:20.462Z,17.60
2018-05-25T05:19:20.615Z,17.50
2018-05-25T05:20:20.774Z,17.40
2018-05-25T05:21:20.929Z,17.10
2018-05-25T05:22:21.085Z,17.80
2018-05-25T05:23:21.241Z,17.60
2018-05-25T05:24:21.396Z,17.50
2018-05-25T05:25:21.550Z,17.10
2018-05-25T05:26:21.705Z,17.40
2018-05-25T05:27:21.864Z,17.50
2018-05-25T05:28:22.022Z,17.50
2018-05-25T05:29:22.178Z,17.20
2018-05-25T05:30:22.334Z,16.70
2018-05-25T05:31:22.489Z,17.10
2018-05-25T05:32:22.645Z,17.00
2018-05-25T05:33:22.803Z,17.40
2018-05-25T05:34:22.958Z,17.50
2018-05-25T05:35:23.116Z,16.50
2018-05-25T05:36:23.270Z,17.20
2018-05-25T05:37:23.425Z,16.60
2018-05-25T05:38:23.582Z,16.30
2018-05-25T05:39:23.744Z,15.80
2018-05-25T05:40:23.899Z,16.20
2018-05-25T05:41:24.053Z,15.90
2018-05-25T05:42:24.208Z,15.50
2018-05-25T05:43:24.367Z,17.10
2018-05-25T05:44:24.523Z,17.30
2018-05-25T05:45:24.676Z,16.00
2018-05-25T05:46:24.836Z,15.30
2018-05-25T05:47:24.994Z,15.90
2018-05-25T05:48:25.150Z,16.10
2018-05-25T05:49:25.308Z,16.00
2018-05-25T05:50:25.464Z,16.10
2018-05-25T05:51:25.619Z,14.70
2018-05-25T05:52:25.775Z,15.60
2018-05-25T05:53:25.930Z,14.40
2018-05-25T05:54:26.089Z,15.70
2018-05-25T05:55:26.243Z,15.00
2018-05-25T05:56:26.400Z,15.20
2018-05-25T05:57:26.562Z,15.80
2018-05-25T05:58:26.750Z,15.30
2018-05-25T05:59:26.899Z,14.30
2018-05-25T06:00:27.060Z,14.20
2018-05-25T06:01:27.211Z,14.60
2018-05-25T06:02:27.370Z,14.60
2018-05-25T06:03:27.526Z,14.30
2018-05-25T06:04:27.755Z,14.20
2018-05-25T06:05:27.842Z,14.80
2018-05-25T06:06:27.998Z,15.10
2018-05-25T06:07:28.153Z,15.30
2018-05-25T06:08:28.313Z,14.80
2018-05-25T06:09:28.469Z,13.90
2018-05-25T06:10:28.624Z,13.00
2018-05-25T06:11:28.779Z,13.30
2018-05-25T06:12:28.940Z,13.10
2018-05-25T06:13:29.099Z,13.00
2018-05-25T06:14:29.249Z,13.70
2018-05-25T06:15:29.406Z,12.80
2018-05-25T06:16:29.562Z,12.60
2018-05-25T06:17:29.719Z,12.50
2018-05-25T06:18:29.876Z,12.00
2018-05-25T06:19:30.038Z,12.80
2018-05-25T06:20:30.193Z,12.50
2018-05-25T06:21:30.350Z,11.90
2018-05-25T06:22:30.509Z,13.00
2018-05-25T06:23:30.666Z,12.10
2018-05-25T06:24:30.822Z,12.30
2018-05-25T06:25:30.982Z,12.00
2018-05-25T06:26:31.139Z,11.90
2018-05-25T06:27:31.298Z,12.50
2018-05-25T06:28:31.457Z,12.30
2018-05-25T06:29:31.613Z,12.90
2018-05-25T06:30:31.770Z,12.00
2018-05-25T06:31:31.928Z,12.40
2018-05-25T06:32:32.089Z,12.50
2018-05-25T06:33:32.248Z,12.40
2018-05-25T06:34:32.406Z,11.70
2018-05-25T06:35:32.564Z,11.50
2018-05-25T06:36:32.725Z,11.70
2018-05-25T06:37:32.880Z,12.00
2018-05-25T06:38:33.038Z,11.50
2018-05-25T06:39:33.195Z,11.00
2018-05-25T06:40:33.353Z,12.10
2018-05-25T06:41:33.514Z,12.10
2018-05-25T06:42:33.665Z,11.80
2018-05-25T06:43:33.825Z,11.70
2018-05-25T06:44:33.980Z,11.80
2018-05-25T06:45:34.138Z,11.90
2018-05-25T06:46:34.297Z,11.60
2018-05-25T06:47:34.455Z,11.20
2018-05-25T06:48:34.612Z,11.10
2018-05-25T06:49:34.767Z,11.30
2018-05-25T06:50:34.924Z,11.10
2018-05-25T06:51:35.084Z,11.50
2018-05-25T06:52:35.243Z,10.50
2018-05-25T06:53:35.400Z,9.90
2018-05-25T06:54:35.559Z,10.20
2018-05-25T06:55:35.718Z,9.90
2018-05-25T06:56:35.875Z,10.50
2018-05-25T06:57:36.031Z,10.80
2018-05-25T06:58:36.190Z,10.50
2018-05-25T06:59:36.350Z,10.80
2018-05-25T07:00:36.508Z,10.50
2018-05-25T07:01:36.666Z,10.30
2018-05-25T07:02:36.825Z,11.10
2018-05-25T07:03:36.988Z,11.10
2018-05-25T07:04:37.143Z,10.10
2018-05-25T07:05:37.298Z,10.50
2018-05-25T07:06:37.457Z,10.30
2018-05-25T07:07:37.615Z,9.80
2018-05-25T07:08:37.777Z,10.20
2018-05-25T07:09:37.932Z,9.80
2018-05-25T07:10:38.099Z,10.70
2018-05-25T07:11:38.250Z,10.30
2018-05-25T07:12:38.409Z,10.20
2018-05-25T07:13:38.568Z,10.50
2018-05-25T07:14:38.725Z,10.20
2018-05-25T07:15:38.882Z,10.00
2018-05-25T07:16:39.042Z,10.40
2018-05-25T07:17:39.203Z,10.60
2018-05-25T07:18:39.359Z,10.60
2018-05-25T07:19:39.520Z,10.00
2018-05-25T07:20:39.677Z,10.00
2018-05-25T07:21:39.839Z,10.20
2018-05-25T07:22:39.996Z,10.30
2018-05-25T07:23:40.154Z,10.30
2018-05-25T07:24:40.315Z,10.40
2018-05-25T07:25:40.477Z,10.70
2018-05-25T07:26:40.633Z,10.10
2018-05-25T07:27:40.792Z,10.90
2018-05-25T07:28:40.956Z,11.00
2018-05-25T07:29:41.110Z,10.10
2018-05-25T07:30:41.270Z,10.80
2018-05-25T07:31:41.428Z,10.00
2018-05-25T07:32:41.586Z,10.20
2018-05-25T07:33:41.745Z,9.80
2018-05-25T07:34:41.906Z,10.50
2018-05-25T07:35:42.066Z,9.80
2018-05-25T07:36:42.224Z,9.90
2018-05-25T07:37:42.383Z,10.20
2018-05-25T07:38:42.541Z,10.20
2018-05-25T07:39:42.703Z,10.30
2018-05-25T07:40:42.856Z,10.20
2018-05-25T07:41:43.023Z,9.60
2018-05-25T07:42:43.180Z,10.20
2018-05-25T07:43:43.337Z,10.10
2018-05-25T07:44:43.505Z,9.30
2018-05-25T07:45:43.659Z,10.00
2018-05-25T07:46:43.818Z,10.50
2018-05-25T07:47:43.981Z,10.20
2018-05-25T07:48:44.135Z,9.40
2018-05-25T07:49:44.295Z,9.60
2018-05-25T07:50:44.455Z,9.60
2018-05-25T07:51:44.612Z,9.80
2018-05-25T07:52:44.774Z,9.70
2018-05-25T07:53:44.932Z,10.80
2018-05-25T07:54:45.106Z,10.10
2018-05-25T07:55:45.266Z,10.00
2018-05-25T07:56:45.424Z,10.40
2018-05-25T07:57:45.584Z,9.50
2018-05-25T07:58:45.742Z,8.80
2018-05-25T07:59:45.903Z,10.00
2018-05-25T08:00:46.063Z,9.60
2018-05-25T08:01:46.223Z,9.40
2018-05-25T08:02:46.382Z,9.50
2018-05-25T08:03:46.541Z,9.10
2018-05-25T08:04:46.701Z,9.10
2018-05-25T08:05:46.858Z,9.30
2018-05-25T08:06:47.020Z,9.00
2018-05-25T08:07:47.178Z,8.20
2018-05-25T08:08:47.340Z,8.60
2018-05-25T08:09:47.498Z,15.20
2018-05-25T08:10:47.657Z,13.90
2018-05-25T08:11:47.817Z,17.70
2018-05-25T08:12:47.977Z,11.00
2018-05-25T08:13:48.136Z,9.40
2018-05-25T08:14:48.294Z,9.30
2018-05-25T08:15:48.460Z,8.90
2018-05-25T08:16:48.613Z,9.00
2018-05-25T08:17:48.779Z,9.80
2018-05-25T08:18:48.935Z,9.40
2018-05-25T08:19:49.097Z,8.70
2018-05-25T08:20:49.254Z,9.10
2018-05-25T08:21:49.448Z,8.40
2018-05-25T08:22:49.577Z,8.30
2018-05-25T08:23:49.736Z,7.90
2018-05-25T08:24:49.895Z,9.40
2018-05-25T08:25:50.055Z,8.60
2018-05-25T08:26:50.215Z,8.70
2018-05-25T08:27:50.373Z,8.00
2018-05-25T08:28:50.537Z,9.20
2018-05-25T08:29:50.693Z,8.70
2018-05-25T08:30:50.854Z,8.40
2018-05-25T08:31:51.014Z,8.30
2018-05-25T08:32:51.175Z,7.90
2018-05-25T08:33:51.331Z,8.70
2018-05-25T08:34:51.491Z,8.60
2018-05-25T08:35:51.652Z,8.70
2018-05-25T08:36:51.814Z,8.90
2018-05-25T08:37:51.975Z,9.70
2018-05-25T08:38:52.135Z,9.10
2018-05-25T08:39:52.292Z,9.10
2018-05-25T08:40:52.451Z,8.40
2018-05-25T08:41:52.616Z,8.90
2018-05-25T08:42:52.770Z,9.20
2018-05-25T08:43:52.936Z,9.50
2018-05-25T08:44:53.094Z,10.10
2018-05-25T08:45:53.252Z,9.80
2018-05-25T08:46:53.413Z,9.60
2018-05-25T08:47:53.572Z,8.20
2018-05-25T08:48:53.734Z,8.80
2018-05-25T08:49:53.895Z,9.00
2018-05-25T08:50:54.051Z,9.80
2018-05-25T08:51:54.209Z,9.30
2018-05-25T08:52:54.369Z,8.80
2018-05-25T08:53:54.532Z,7.90
2018-05-25T08:54:54.688Z,7.90
2018-05-25T08:55:54.850Z,7.90
2018-05-25T08:56:55.008Z,8.00
2018-05-25T08:57:55.169Z,7.80
2018-05-25T08:58:55.325Z,7.80
2018-05-25T08:59:55.488Z,7.80
2018-05-25T09:00:55.644Z,7.80
2018-05-25T09:01:55.805Z,7.40
2018-05-25T09:02:55.967Z,7.50
2018-05-25T09:03:56.126Z,8.80
2018-05-25T09:04:56.283Z,8.00
2018-05-25T09:05:56.445Z,7.90
2018-05-25T09:06:56.611Z,7.50
2018-05-25T09:07:56.785Z,7.20
2018-05-25T09:08:56.922Z,8.30
2018-05-25T09:09:57.081Z,7.80
2018-05-25T09:10:57.244Z,8.10
2018-05-25T09:11:57.404Z,7.50
2018-05-25T09:12:57.562Z,7.30
2018-05-25T09:13:57.722Z,7.50
2018-05-25T09:14:57.881Z,7.70
2018-05-25T09:15:58.043Z,6.90
2018-05-25T09:16:58.199Z,7.00
2018-05-25T09:17:58.361Z,7.20
2018-05-25T09:18:58.521Z,7.30
2018-05-25T09:19:58.679Z,7.00
2018-05-25T09:20:58.843Z,7.40
2018-05-25T09:21:59.027Z,7.10
2018-05-25T09:22:59.161Z,7.20
2018-05-25T09:23:59.326Z,7.00
2018-05-25T09:24:59.480Z,6.20
2018-05-25T09:25:59.642Z,7.00
2018-05-25T09:26:59.800Z,6.20
2018-05-25T09:27:59.962Z,6.60
2018-05-25T09:29:00.122Z,6.10
2018-05-25T09:30:00.284Z,6.50
2018-05-25T09:31:00.447Z,5.90
2018-05-25T09:32:00.606Z,5.90
2018-05-25T09:33:00.770Z,6.00
2018-05-25T09:34:00.934Z,6.10
2018-05-25T09:35:01.093Z,6.00
2018-05-25T09:36:01.253Z,5.80
2018-05-25T09:37:01.418Z,6.30
2018-05-25T09:38:01.577Z,5.80
2018-05-25T09:39:01.742Z,6.70
2018-05-25T09:40:01.905Z,6.10
2018-05-25T09:41:02.066Z,7.00
2018-05-25T09:42:02.225Z,6.70
2018-05-25T09:43:02.383Z,7.00
2018-05-25T09:44:02.547Z,6.20
2018-05-25T09:45:02.708Z,6.30
2018-05-25T09:46:03.076Z,5.90
2018-05-25T09:47:03.031Z,5.70
2018-05-25T09:48:03.190Z,6.20
2018-05-25T09:49:03.356Z,6.10
2018-05-25T09:50:03.521Z,6.10
2018-05-25T09:51:03.679Z,6.10
2018-05-25T09:52:03.843Z,5.90
2018-05-25T09:53:04.003Z,5.80
2018-05-25T09:54:04.165Z,6.40
2018-05-25T09:55:04.337Z,6.40
2018-05-25T09:56:04.499Z,5.90
2018-05-25T09:57:04.646Z,5.80
2018-05-25T09:58:04.807Z,6.00
2018-05-25T09:59:04.969Z,5.80
2018-05-25T10:00:05.181Z,5.70
2018-05-25T10:01:05.292Z,5.60
2018-05-25T10:02:05.455Z,6.10
2018-05-25T10:03:05.622Z,5.60
2018-05-25T10:04:05.777Z,6.00
2018-05-25T10:05:05.942Z,6.20
2018-05-25T10:06:06.106Z,5.90
2018-05-25T10:07:06.267Z,5.90
2018-05-25T10:08:06.438Z,6.90
2018-05-25T10:09:06.595Z,5.70
2018-05-25T10:10:06.759Z,6.40
2018-05-25T10:11:06.922Z,6.70
2018-05-25T10:12:07.083Z,7.40
2018-05-25T10:13:07.245Z,7.00
2018-05-25T10:14:07.407Z,7.40
2018-05-25T10:15:07.570Z,6.00
2018-05-25T10:16:07.736Z,6.70
2018-05-25T10:17:07.894Z,6.50
2018-05-25T10:18:08.055Z,6.50
2018-05-25T10:19:08.221Z,6.10
2018-05-25T10:20:08.377Z,6.30
2018-05-25T10:21:08.541Z,5.70
2018-05-25T10:22:08.704Z,6.60
2018-05-25T10:23:08.869Z,6.20
2018-05-25T10:24:09.026Z,5.90
2018-05-25T10:25:09.190Z,6.40
2018-05-25T10:26:09.350Z,6.10
2018-05-25T10:27:09.509Z,6.30
2018-05-25T10:28:09.670Z,6.10
2018-05-25T10:29:09.832Z,6.30
2018-05-25T10:30:09.995Z,6.60
2018-05-25T10:31:10.157Z,6.70
2018-05-25T10:32:10.318Z,6.50
2018-05-25T10:33:10.480Z,6.00
2018-05-25T10:34:10.655Z,6.30
2018-05-25T10:35:10.811Z,5.70
2018-05-25T10:36:10.968Z,5.90
2018-05-25T10:37:11.124Z,6.30
2018-05-25T10:38:11.285Z,6.20
2018-05-25T10:39:11.447Z,6.40
2018-05-25T10:40:11.610Z,6.30
2018-05-25T10:41:11.818Z,6.30
2018-05-25T10:42:11.932Z,5.90
2018-05-25T10:43:12.094Z,6.20
2018-05-25T10:44:12.254Z,6.10
2018-05-25T10:45:12.419Z,6.40
2018-05-25T10:46:12.579Z,6.40
2018-05-25T10:47:12.738Z,5.90
2018-05-25T10:48:12.907Z,7.20
2018-05-25T10:49:13.060Z,8.20
2018-05-25T10:50:13.221Z,7.60
2018-05-25T10:51:13.381Z,7.00
2018-05-25T10:52:13.544Z,6.60
2018-05-25T10:53:13.703Z,6.60
2018-05-25T10:54:13.865Z,6.10
2018-05-25T10:55:14.025Z,6.10
2018-05-25T10:56:14.187Z,6.30
2018-05-25T10:57:14.348Z,6.80
2018-05-25T10:58:14.510Z,6.10
2018-05-25T10:59:14.673Z,5.50
2018-05-25T11:00:14.833Z,6.00
2018-05-25T11:01:14.991Z,6.30
2018-05-25T11:02:15.152Z,6.60
2018-05-25T11:03:15.314Z,7.30
2018-05-25T11:04:15.484Z,7.50
2018-05-25T11:05:15.637Z,6.70
2018-05-25T11:06:15.799Z,5.40
2018-05-25T11:07:15.959Z,5.50
2018-05-25T11:08:16.121Z,5.50
2018-05-25T11:09:16.284Z,5.60
2018-05-25T11:10:16.449Z,5.60
2018-05-25T11:11:16.609Z,5.60
2018-05-25T11:12:16.772Z,5.10
2018-05-25T11:13:16.933Z,5.10
2018-05-25T11:14:17.104Z,4.60
2018-05-25T11:15:17.258Z,5.40
2018-05-25T11:16:17.419Z,5.00
2018-05-25T11:17:17.582Z,5.00
2018-05-25T11:18:17.744Z,4.90
2018-05-25T11:19:17.903Z,4.50
2018-05-25T11:20:18.067Z,4.50
2018-05-25T11:21:18.230Z,4.60
2018-05-25T11:22:18.392Z,4.80
2018-05-25T11:23:18.555Z,4.80
2018-05-25T11:24:18.719Z,5.00
2018-05-25T11:25:18.885Z,4.80
2018-05-25T11:26:19.045Z,4.70
2018-05-25T11:27:19.209Z,5.10
2018-05-25T11:28:19.372Z,4.90
2018-05-25T11:29:19.536Z,4.20
2018-05-25T11:30:19.701Z,4.30
2018-05-25T11:31:19.862Z,4.20
2018-05-25T11:32:20.026Z,4.10
2018-05-25T11:33:20.188Z,3.90
2018-05-25T11:34:20.350Z,4.20
2018-05-25T11:35:20.514Z,4.20
2018-05-25T11:36:20.677Z,4.00
2018-05-25T11:37:20.840Z,4.40
2018-05-25T11:38:21.003Z,4.20
2018-05-25T11:39:21.167Z,3.90
2018-05-25T11:40:21.332Z,4.40
2018-05-25T11:41:21.493Z,4.10
2018-05-25T11:42:21.659Z,4.20
2018-05-25T11:43:21.822Z,4.20
2018-05-25T11:44:21.986Z,4.20
2018-05-25T11:45:22.149Z,4.00
2018-05-25T11:46:22.315Z,4.00
2018-05-25T11:47:22.477Z,3.90
2018-05-25T11:48:22.644Z,4.10
2018-05-25T11:49:22.807Z,4.10
2018-05-25T11:50:22.971Z,3.80
2018-05-25T11:51:23.135Z,4.00
2018-05-25T11:52:23.300Z,4.00
2018-05-25T11:53:23.467Z,4.10
2018-05-25T11:54:23.629Z,4.00
2018-05-25T11:55:23.797Z,3.70
2018-05-25T11:56:23.959Z,4.50
2018-05-25T11:57:24.113Z,4.20
2018-05-25T11:58:24.300Z,3.90
2018-05-25T11:59:24.463Z,4.30
2018-05-25T12:00:24.632Z,4.10
2018-05-25T12:01:24.792Z,4.00
2018-05-25T12:02:24.966Z,4.00
2018-05-25T12:03:25.118Z,3.90
2018-05-25T12:04:25.296Z,4.20
2018-05-25T12:05:25.444Z,4.10
2018-05-25T12:06:25.609Z,4.20
2018-05-25T12:07:25.775Z,4.30
2018-05-25T12:08:25.938Z,4.30
2018-05-25T12:09:26.103Z,4.10
2018-05-25T12:10:26.269Z,4.30
2018-05-25T12:11:26.429Z,4.20
2018-05-25T12:12:26.592Z,3.90
2018-05-25T12:13:26.755Z,4.20
2018-05-25T12:14:26.919Z,3.90
2018-05-25T12:15:27.086Z,3.70
2018-05-25T12:16:27.286Z,4.20
2018-05-25T12:17:27.411Z,3.80
2018-05-25T12:18:27.574Z,3.80
2018-05-25T12:19:27.740Z,3.80
2018-05-25T12:20:27.902Z,4.30
2018-05-25T12:21:28.066Z,4.20
2018-05-25T12:22:28.228Z,3.80
2018-05-25T12:23:28.395Z,3.70
2018-05-25T12:24:28.556Z,3.90
2018-05-25T12:25:28.723Z,3.90
2018-05-25T12:26:28.887Z,4.00
2018-05-25T12:27:29.050Z,3.80
2018-05-25T12:28:29.215Z,3.70
2018-05-25T12:29:29.380Z,4.30
2018-05-25T12:30:29.548Z,3.40
2018-05-25T12:31:29.781Z,4.00
2018-05-25T12:32:29.896Z,3.60
2018-05-25T12:33:30.062Z,3.70
2018-05-25T12:34:30.225Z,3.40
2018-05-25T12:35:30.390Z,3.80
2018-05-25T12:36:30.555Z,3.80
2018-05-25T12:37:30.717Z,3.40
2018-05-25T12:38:30.881Z,3.20
2018-05-25T12:39:31.046Z,3.30
2018-05-25T12:40:31.227Z,3.60
2018-05-25T12:41:31.378Z,3.60
2018-05-25T12:42:31.539Z,3.50
2018-05-25T12:43:31.707Z,3.20
2018-05-25T12:44:31.870Z,3.40
2018-05-25T12:45:32.033Z,3.40
2018-05-25T12:46:32.199Z,3.30
2018-05-25T12:47:32.367Z,3.60
2018-05-25T12:48:32.531Z,3.10
2018-05-25T12:49:32.695Z,3.60
2018-05-25T12:50:32.859Z,3.50
2018-05-25T12:51:33.023Z,3.90
2018-05-25T12:52:33.188Z,3.50
2018-05-25T12:53:33.356Z,3.80
2018-05-25T12:54:33.523Z,3.30
2018-05-25T12:55:33.692Z,3.50
2018-05-25T12:56:33.853Z,3.70
2018-05-25T12:57:34.016Z,3.40
2018-05-25T12:58:34.183Z,3.60
2018-05-25T12:59:34.348Z,3.30
2018-05-25T13:00:34.513Z,3.20
2018-05-25T13:01:34.679Z,3.50
2018-05-25T13:02:34.842Z,3.40
2018-05-25T13:03:35.011Z,3.40
2018-05-25T13:04:35.176Z,3.70